• Join FlightAware (Why Join?)
  • Login
  • US Flag 
05:06PM EDT


 

Airport Tracker/Info


-or-


 

Live Flight TrackerFlight Track Log ✈ UAL149 ✈ 02-May-2013 ✈ KEWR - KSDF

Flight Track Log - Related Links

Times and Time Zones

All times are in EDT time to prevent confusion due to time zone crossing. See the UAL149 flight status page for this flight to view local times or setup timezone preferences in your user account.

Time Position Orientation Groundspeed Altitude Reporting Facility
EDT Latitude Longitude Course Direction KTS MPH feet Rate Location/Type
05:13PM 40.6456 -74.1872 270° West 192 221 1,600  Level New York Center
05:14PM 40.6125 -74.2511 236° Southwest 252 290 3,800 2,760 Climbing New York Center
05:15PM 40.6834 -74.5963 270° West  Level FlightAware Approximate
05:15PM 40.6000 -74.3667 262° West 295 339 7,300  Level New York TRACON
05:16PM 40.6833 -74.7394 270° West  Level FlightAware Approximate
05:16PM 40.6000 -74.4833 270° West 305 351 10,500  Level New York TRACON
05:17PM 40.6834 -74.8827 270° West  Level FlightAware Approximate
05:17PM 40.6167 -74.5833 282° West 342 394 11,900  Level New York TRACON
05:18PM 40.6833 -75.0258 270° West  Level FlightAware Approximate
05:18PM 40.6672 -74.6917 302° West 384 442 12,700  Level New York Center
05:19PM 40.6731 -74.8342 273° West 394 453 16,200 2,040 Climbing New York Center
05:20PM 40.6783 -74.9769 273° West 394 453 17,000 900 Climbing New York Center
05:21PM 40.6675 -75.1075 264° West 400 460 18,100 1,680 Climbing New York Center
05:22PM 40.6058 -75.2514 241° Southwest 400 460 20,400 1,980 Climbing New York Center
05:23PM 40.5464 -75.3839 239° Southwest 406 467 22,200 1,620 Climbing New York Center
05:24PM 40.4783 -75.5239 237° Southwest 438 504 23,700 1,620 Climbing New York Center
05:25PM 40.4142 -75.6694 240° Southwest 457 526 25,500 1,620 Climbing New York Center
05:26PM 40.3456 -75.8144 238° Southwest 462 532 27,000 1,620 Climbing New York Center
05:27PM 40.2725 -75.9614 237° Southwest 469 540 28,800 1,860 Climbing New York Center
05:28PM 40.2056 -76.1061 239° Southwest 474 545 30,800 1,620 Climbing New York Center
05:29PM 40.1519 -76.2294 240° Southwest 467 537 32,100 1,200 Climbing New York Center
05:30PM 40.0806 -76.3706 237° Southwest 462 532 33,300 1,140 Climbing New York Center
05:31PM 40.0153 -76.5144 239° Southwest 457 526 34,500 1,020 Climbing New York Center
05:32PM 39.9039 -76.7517 239° Southwest 456 525 36,000 540 Climbing Washington Center
05:33PM 39.8444 -76.8750 238° Southwest 450 518 36,000  Level Washington Center
05:34PM 39.7803 -77.0144 239° Southwest 450 518 36,000  Level Washington Center
05:36PM 39.7161 -77.1508 239° Southwest 450 518 36,000  Level Washington Center
05:37PM 39.6539 -77.2842 239° Southwest 450 518 36,000  Level Washington Center
05:37PM 39.5894 -77.4228 239° Southwest 450 518 36,000  Level Washington Center
05:38PM 39.5225 -77.5581 237° Southwest 450 518 36,000  Level Washington Center
05:40PM 39.4600 -77.6936 239° Southwest 450 518 36,000  Level Washington Center
05:41PM 39.3883 -77.8419 238° Southwest 450 518 36,000  Level Washington Center
05:41PM 39.3336 -77.9825 243° Southwest 450 518 36,000  Level Washington Center
05:42PM 39.2767 -78.1225 242° Southwest 445 512 36,000  Level Washington Center
05:43PM 39.2214 -78.2628 243° Southwest 445 512 36,000  Level Washington Center
05:44PM 39.1661 -78.4025 243° Southwest 445 512 36,000  Level Washington Center
05:46PM 39.1086 -78.5447 243° Southwest 445 512 36,000  Level Washington Center
05:46PM 39.0528 -78.6869 243° Southwest 445 512 36,000  Level Washington Center
05:47PM 38.9950 -78.8261 242° Southwest 445 512 36,000  Level Washington Center
05:49PM 38.9369 -78.9650 242° Southwest 445 512 36,000  Level Washington Center
05:49PM 38.8808 -79.1036 243° Southwest 445 512 36,000  Level Washington Center
05:50PM 38.8328 -79.2506 247° West 445 512 36,000  Level Washington Center
05:51PM 38.8050 -79.4039 257° West 445 512 36,000  Level Washington Center
05:52PM 38.7844 -79.5278 258° West 440 506 36,000  Level Washington Center
05:53PM 38.7372 -79.6931 250° West 445 512 36,000  Level Washington Center
05:54PM 38.6858 -79.8497 247° West 445 512 36,000  Level Washington Center
05:56PM 38.6369 -79.9933 246° West 445 512 36,000  Level Washington Center
05:57PM 38.6000 -80.1425 252° West 445 512 36,000  Level Washington Center
05:59PM 38.5342 -80.4433 254° West 432 497 36,000  Level Indianapolis Center
06:00PM 38.4994 -80.6069 255° West 433 498 36,000  Level Indianapolis Center
06:01PM 38.4664 -80.7531 254° West 430 495 36,000  Level Indianapolis Center
06:02PM 38.4325 -80.9014 254° West 433 498 36,000  Level Indianapolis Center
06:03PM 38.3997 -81.0492 254° West 432 497 36,000  Level Indianapolis Center
06:04PM 38.3661 -81.1972 254° West 433 498 36,000  Level Indianapolis Center
06:05PM 38.3325 -81.3450 254° West 431 496 36,000  Level Indianapolis Center
06:06PM 38.2975 -81.4953 254° West 437 503 36,000 -60 Level Indianapolis Center
06:07PM 38.2639 -81.6467 254° West 440 506 35,900 -660 Descending Indianapolis Center
06:08PM 38.2225 -81.8247 254° West 435 501 34,700 -1,020 Descending Indianapolis Center
06:09PM 38.1878 -81.9767 254° West 443 510 33,800 -960 Descending Indianapolis Center
06:10PM 38.1517 -82.1275 253° West 446 513 32,800 -900 Descending Indianapolis Center
06:11PM 38.1161 -82.2800 254° West 451 519 32,000 -420 Descending Indianapolis Center
06:12PM 38.0783 -82.4436 254° West 446 513 32,000  Level Indianapolis Center
06:13PM 38.0406 -82.5931 252° West 446 513 32,000  Level Indianapolis Center
06:14PM 38.0053 -82.7436 253° West 446 513 32,000  Level Indianapolis Center
06:15PM 37.9697 -82.8953 253° West 449 517 32,000  Level Indianapolis Center
06:16PM 37.9264 -83.0708 253° West 450 518 32,000  Level Indianapolis Center
06:17PM 37.8892 -83.2197 252° West 447 514 32,000  Level Indianapolis Center
06:18PM 37.8528 -83.3697 253° West 446 513 32,000  Level Indianapolis Center
06:19PM 37.8147 -83.5186 252° West 448 516 32,000 -300 Level Indianapolis Center
06:20PM 37.7775 -83.6697 253° West 450 518 31,400 -1,440 Descending Indianapolis Center
06:21PM 37.7333 -83.8414 252° West 444 511 29,000 -2,220 Descending Indianapolis Center
06:22PM 37.6983 -83.9831 253° West 430 495 26,800 -2,160 Descending Indianapolis Center
06:23PM 37.6639 -84.1181 252° West 414 476 24,600 -1,920 Descending Indianapolis Center
06:24PM 37.6269 -84.2486 250° West 400 460 22,900 -2,940 Descending Indianapolis Center
06:26PM 37.6325 -84.3806 273° West 383 441 18,600 -3,240 Descending Indianapolis Center
06:27PM 37.6378 -84.5392 272° West 390 449 16,300 -2,100 Descending Indianapolis Center
06:28PM 37.6417 -84.6664 272° West 368 423 14,300 -1,980 Descending Indianapolis Center
06:29PM 37.6467 -84.7914 273° West 359 413 12,300 -1,500 Descending Indianapolis Center
06:30PM 37.6531 -84.9086 274° West 339 390 11,200 -780 Descending Indianapolis Center
06:31PM 37.6903 -85.0019 297° West 320 368 10,800 -600 Descending Indianapolis Center
06:32PM 37.7542 -85.0939 311° West 303 349 10,000 -420 Descending Indianapolis Center
06:33PM 37.8108 -85.1706 313° West 298 343 10,000  Level Indianapolis Center
06:34PM 37.8700 -85.2528 312° West 300 345 10,000 -540 Level Indianapolis Center
06:35PM 37.9256 -85.3311 312° West 299 344 8,900 -1,140 Descending Indianapolis Center
06:36PM 37.9806 -85.4075 312° West 295 339 7,700 -1,320 Descending Indianapolis Center
06:37PM 38.0336 -85.4808 313° West 285 328 6,200 -840 Descending Indianapolis Center
06:38PM 38.0875 -85.5542 313° West 284 327 6,000 -120 Descending Indianapolis Center
06:39PM 38.1481 -85.6086 325° Northwest 282 325 6,000 -180 Level Indianapolis Center
06:40PM 38.2192 -85.6372 342° North 273 314 5,700 -720 Descending Indianapolis Center
06:41PM 38.2972 -85.6667 344° North 257 296 4,600 -780 Descending Indianapolis Center
06:42PM 38.3483 -85.7086 327° Northwest 245 282 4,100 -540 Descending Indianapolis Center